createdAt,value
2019-01-17T00:00:18.629Z,1.10
2019-01-17T00:03:05.709Z,1.10
2019-01-17T00:06:06.029Z,1.10
2019-01-17T00:08:53.325Z,1.10
2019-01-17T00:11:44.552Z,1.10
2019-01-17T00:14:31.416Z,1.10
2019-01-17T00:17:29.421Z,1.10
2019-01-17T00:20:19.000Z,1.10
2019-01-17T00:23:12.939Z,1.10
2019-01-17T00:26:01.228Z,1.10
2019-01-17T00:28:39.517Z,1.10
2019-01-17T00:31:26.196Z,1.10
2019-01-17T00:34:20.346Z,1.10
2019-01-17T00:37:08.253Z,1.00
2019-01-17T00:40:02.152Z,1.10
2019-01-17T00:42:38.090Z,1.10
2019-01-17T00:45:43.133Z,1.10
2019-01-17T00:48:30.764Z,1.10
2019-01-17T00:51:22.085Z,1.20
2019-01-17T00:54:19.180Z,1.10
2019-01-17T00:57:01.034Z,1.20
2019-01-17T00:59:45.275Z,1.20
2019-01-17T01:02:40.688Z,1.20
2019-01-17T01:05:28.823Z,1.30
2019-01-17T01:08:15.428Z,1.30
2019-01-17T01:11:09.541Z,1.40
2019-01-17T01:13:53.045Z,1.40
2019-01-17T01:16:43.725Z,1.50
2019-01-17T01:19:21.032Z,1.60
2019-01-17T01:22:11.539Z,1.70
2019-01-17T01:25:08.220Z,1.80
2019-01-17T01:27:59.185Z,1.80
2019-01-17T01:30:59.020Z,1.80
2019-01-17T01:33:46.972Z,2.10
2019-01-17T01:36:33.727Z,2.60
2019-01-17T01:39:19.020Z,2.80
2019-01-17T01:42:04.077Z,2.90
2019-01-17T01:44:49.054Z,2.80
2019-01-17T01:47:46.228Z,2.80
2019-01-17T01:50:35.960Z,2.80
2019-01-17T01:53:06.996Z,2.70
2019-01-17T01:55:36.091Z,3.00
2019-01-17T01:58:05.955Z,2.90
2019-01-17T02:00:34.922Z,3.10
2019-01-17T02:03:03.720Z,3.10
2019-01-17T02:05:32.561Z,3.20
2019-01-17T02:08:01.904Z,3.40
2019-01-17T02:10:30.747Z,3.80
2019-01-17T02:12:59.604Z,3.90
2019-01-17T02:15:28.452Z,4.00
2019-01-17T02:17:57.629Z,4.20
2019-01-17T02:20:26.589Z,4.40
2019-01-17T02:22:55.855Z,4.50
2019-01-17T02:25:25.092Z,4.60
2019-01-17T02:27:53.937Z,4.80
2019-01-17T02:30:22.803Z,5.10
2019-01-17T02:32:51.669Z,5.40
2019-01-17T02:35:20.622Z,5.60
2019-01-17T02:37:49.409Z,5.60
2019-01-17T02:40:18.870Z,5.70
2019-01-17T02:42:48.013Z,5.80
2019-01-17T02:45:17.309Z,5.80
2019-01-17T02:47:46.172Z,5.90
2019-01-17T02:50:15.494Z,6.00
2019-01-17T02:52:44.339Z,6.10
2019-01-17T02:55:13.347Z,6.00
2019-01-17T02:57:42.287Z,6.10
2019-01-17T03:00:14.419Z,6.10
2019-01-17T03:02:43.365Z,6.10
2019-01-17T03:05:12.514Z,6.10
2019-01-17T03:07:41.766Z,6.00
2019-01-17T03:10:13.948Z,6.00
2019-01-17T03:12:42.885Z,6.00
2019-01-17T03:15:12.164Z,5.90
2019-01-17T03:17:41.104Z,6.00
2019-01-17T03:20:11.140Z,6.10
2019-01-17T03:22:40.124Z,6.00
2019-01-17T03:25:09.368Z,6.10
2019-01-17T03:27:38.325Z,6.10
2019-01-17T03:30:16.261Z,6.10
2019-01-17T03:32:45.484Z,6.10
2019-01-17T03:35:14.446Z,6.10
2019-01-17T03:37:43.370Z,6.10
2019-01-17T03:40:16.142Z,6.10
2019-01-17T03:42:45.059Z,6.00
2019-01-17T03:45:14.488Z,6.00
2019-01-17T03:47:43.320Z,6.00
2019-01-17T03:50:13.805Z,5.90
2019-01-17T03:52:42.968Z,5.90
2019-01-17T03:55:13.933Z,5.90
2019-01-17T03:57:42.860Z,5.90
2019-01-17T04:00:20.016Z,5.80
2019-01-17T04:02:49.044Z,5.80
2019-01-17T04:05:18.256Z,5.90
2019-01-17T04:07:47.180Z,5.90
2019-01-17T04:10:16.599Z,5.80
2019-01-17T04:12:45.936Z,5.80
2019-01-17T04:15:15.361Z,5.70
2019-01-17T04:17:44.312Z,5.70
2019-01-17T04:20:15.216Z,5.80
2019-01-17T04:22:44.094Z,5.90
2019-01-17T04:25:13.019Z,6.00
2019-01-17T04:27:41.970Z,5.90
2019-01-17T04:30:16.336Z,5.90
2019-01-17T04:32:45.317Z,5.90
2019-01-17T04:35:14.250Z,5.80
2019-01-17T04:37:43.645Z,5.80
2019-01-17T04:40:13.205Z,5.70
2019-01-17T04:42:42.389Z,5.80
2019-01-17T04:45:11.899Z,5.80
2019-01-17T04:47:41.108Z,5.70
2019-01-17T04:50:11.685Z,5.70
2019-01-17T04:52:40.800Z,5.70
2019-01-17T04:55:12.438Z,5.70
2019-01-17T04:57:41.396Z,5.70
2019-01-17T05:00:13.452Z,5.70
2019-01-17T05:02:42.337Z,5.70
2019-01-17T05:05:11.381Z,5.60
2019-01-17T05:07:40.329Z,5.70
2019-01-17T05:10:10.024Z,5.80
2019-01-17T05:12:39.233Z,5.80
2019-01-17T05:15:08.578Z,5.80
2019-01-17T05:17:37.512Z,5.90
2019-01-17T05:20:08.676Z,5.90
2019-01-17T05:22:37.489Z,6.00
2019-01-17T05:25:12.415Z,6.00
2019-01-17T05:27:37.353Z,6.10
2019-01-17T05:30:08.794Z,6.10
2019-01-17T05:32:37.586Z,6.20
2019-01-17T05:35:07.202Z,6.30
2019-01-17T05:37:36.160Z,6.30
2019-01-17T05:40:07.053Z,6.30
2019-01-17T05:42:36.033Z,6.30
2019-01-17T05:45:05.907Z,6.30
2019-01-17T05:47:34.766Z,6.30
2019-01-17T05:50:04.164Z,6.30
2019-01-17T05:52:32.970Z,6.20
2019-01-17T05:55:01.767Z,6.20
2019-01-17T05:57:30.688Z,6.20
2019-01-17T05:59:59.506Z,6.20
2019-01-17T06:02:28.314Z,6.10
2019-01-17T06:04:57.173Z,6.10
2019-01-17T06:07:26.035Z,6.10
2019-01-17T06:09:54.812Z,6.10
2019-01-17T06:12:23.600Z,6.10
2019-01-17T06:14:52.392Z,6.20
2019-01-17T06:17:21.264Z,6.30
2019-01-17T06:19:50.140Z,6.40
2019-01-17T06:22:19.015Z,6.40
2019-01-17T06:24:48.332Z,6.40
2019-01-17T06:27:17.480Z,6.40
2019-01-17T06:29:46.273Z,6.40
2019-01-17T06:32:15.076Z,6.40
2019-01-17T06:34:44.160Z,6.50
2019-01-17T06:37:13.028Z,6.50
2019-01-17T06:39:41.889Z,6.50
2019-01-17T06:42:10.777Z,6.70
2019-01-17T06:44:39.586Z,6.90
2019-01-17T06:47:08.462Z,7.00
2019-01-17T06:49:37.382Z,7.10
2019-01-17T06:52:06.256Z,7.30
2019-01-17T06:54:35.697Z,7.30
2019-01-17T06:57:04.660Z,7.40
2019-01-17T06:59:33.512Z,7.40
2019-01-17T07:02:02.485Z,7.40
2019-01-17T07:04:31.273Z,7.40
2019-01-17T07:07:00.345Z,7.40
2019-01-17T07:09:29.332Z,7.40
2019-01-17T07:11:58.289Z,7.40
2019-01-17T07:14:27.116Z,7.40
2019-01-17T07:16:55.983Z,7.50
2019-01-17T07:19:24.874Z,7.50
2019-01-17T07:21:53.660Z,7.50
2019-01-17T07:24:22.524Z,7.50
2019-01-17T07:26:51.415Z,7.50
2019-01-17T07:29:20.219Z,7.50
2019-01-17T07:31:49.086Z,7.50
2019-01-17T07:34:17.884Z,7.50
2019-01-17T07:36:46.687Z,7.40
2019-01-17T07:39:15.524Z,7.40
2019-01-17T07:41:44.395Z,7.40
2019-01-17T07:44:13.225Z,7.40
2019-01-17T07:46:42.053Z,7.40
2019-01-17T07:49:13.862Z,7.30
2019-01-17T07:51:42.799Z,7.30
2019-01-17T07:54:11.597Z,7.30
2019-01-17T07:56:40.559Z,7.30
2019-01-17T07:59:09.380Z,7.30
2019-01-17T08:01:38.346Z,7.30
2019-01-17T08:04:07.218Z,7.20
2019-01-17T08:06:36.178Z,7.20
2019-01-17T08:09:08.936Z,7.20
2019-01-17T08:11:37.823Z,7.20
2019-01-17T08:14:06.776Z,7.30
2019-01-17T08:16:35.578Z,7.60
2019-01-17T08:19:04.728Z,7.60
2019-01-17T08:21:33.943Z,7.50
2019-01-17T08:24:03.116Z,7.50
2019-01-17T08:26:32.411Z,7.40
2019-01-17T08:29:01.700Z,7.40
2019-01-17T08:31:30.497Z,7.40
2019-01-17T08:33:59.385Z,7.40
2019-01-17T08:36:28.179Z,7.40
2019-01-17T08:38:57.148Z,7.40
2019-01-17T08:41:26.088Z,7.40
2019-01-17T08:43:54.962Z,7.30
2019-01-17T08:46:23.840Z,7.30
2019-01-17T08:48:52.737Z,7.20
2019-01-17T08:51:21.994Z,7.30
2019-01-17T08:53:50.825Z,7.30
2019-01-17T08:56:19.789Z,7.20
2019-01-17T08:58:48.646Z,7.20
2019-01-17T09:01:17.496Z,7.10
2019-01-17T09:03:46.358Z,7.10
2019-01-17T09:06:15.233Z,7.10
2019-01-17T09:08:44.168Z,7.00
2019-01-17T09:11:13.162Z,7.00
2019-01-17T09:13:41.960Z,6.90
2019-01-17T09:16:10.933Z,6.90
2019-01-17T09:18:39.828Z,6.90
2019-01-17T09:21:09.353Z,6.90
2019-01-17T09:23:38.224Z,6.90
2019-01-17T09:26:07.563Z,6.90
2019-01-17T09:28:36.725Z,6.90
2019-01-17T09:31:05.678Z,6.90
2019-01-17T09:33:34.653Z,6.90
2019-01-17T09:36:03.551Z,6.90
2019-01-17T09:38:32.502Z,6.90
2019-01-17T09:41:01.487Z,6.90
2019-01-17T09:43:30.424Z,6.80
2019-01-17T09:45:59.204Z,6.80
2019-01-17T09:48:28.080Z,6.80
2019-01-17T09:50:57.368Z,6.80
2019-01-17T09:53:26.241Z,6.70
2019-01-17T09:55:55.416Z,6.70
2019-01-17T09:58:24.209Z,6.80
2019-01-17T10:00:53.215Z,6.70
2019-01-17T10:03:22.316Z,6.70
2019-01-17T10:05:51.533Z,6.80
2019-01-17T10:08:20.484Z,6.70
2019-01-17T10:10:49.346Z,6.70
2019-01-17T10:13:18.147Z,6.70
2019-01-17T10:16:05.456Z,6.60
2019-01-17T10:19:12.705Z,6.60
2019-01-17T10:22:29.188Z,6.50
2019-01-17T10:25:24.978Z,6.50
2019-01-17T10:28:11.550Z,6.40
2019-01-17T10:31:06.647Z,6.40
2019-01-17T10:33:44.712Z,6.40
2019-01-17T10:36:45.657Z,6.40
2019-01-17T10:40:26.783Z,6.50
2019-01-17T10:43:23.973Z,6.60
2019-01-17T10:46:49.228Z,6.60
2019-01-17T10:49:31.910Z,6.70
2019-01-17T10:52:39.830Z,6.70
2019-01-17T10:55:57.780Z,6.80
2019-01-17T10:59:26.169Z,6.90
2019-01-17T11:02:15.556Z,7.00
2019-01-17T11:05:25.813Z,7.00
2019-01-17T11:08:26.836Z,7.00
2019-01-17T11:11:40.380Z,7.10
2019-01-17T11:14:45.950Z,7.20
2019-01-17T11:18:02.140Z,7.20
2019-01-17T11:21:19.987Z,7.20
2019-01-17T11:24:23.652Z,7.20
2019-01-17T11:27:38.135Z,7.20
2019-01-17T11:30:40.317Z,7.10
2019-01-17T11:33:38.836Z,7.10
2019-01-17T11:36:25.474Z,7.10
2019-01-17T11:39:33.529Z,7.10
2019-01-17T11:42:27.941Z,7.10
2019-01-17T11:45:18.718Z,7.10
2019-01-17T11:48:18.718Z,7.10
2019-01-17T11:51:27.804Z,7.20
2019-01-17T11:54:15.386Z,7.30
2019-01-17T11:57:25.800Z,7.40
2019-01-17T12:00:35.912Z,7.40
2019-01-17T12:03:34.665Z,7.40
2019-01-17T12:06:03.620Z,7.40
2019-01-17T12:08:32.581Z,7.60
2019-01-17T12:11:01.701Z,7.60
2019-01-17T12:13:30.588Z,7.60
2019-01-17T12:15:59.404Z,7.60
2019-01-17T12:18:28.205Z,7.50
2019-01-17T12:20:57.077Z,7.50
2019-01-17T12:23:25.988Z,7.50
2019-01-17T12:25:54.772Z,7.50
2019-01-17T12:28:23.581Z,7.30
2019-01-17T12:30:52.429Z,7.10
2019-01-17T12:33:21.710Z,7.00
2019-01-17T12:35:50.566Z,6.90
2019-01-17T12:38:20.261Z,6.90
2019-01-17T12:40:49.124Z,6.90
2019-01-17T12:43:18.070Z,6.90
2019-01-17T12:45:47.237Z,6.80
2019-01-17T12:48:16.098Z,6.80
2019-01-17T12:50:44.987Z,6.70
2019-01-17T12:53:13.861Z,6.60
2019-01-17T12:55:42.802Z,6.50
2019-01-17T12:58:11.597Z,6.40
2019-01-17T13:00:40.489Z,6.30
2019-01-17T13:03:09.541Z,6.30
2019-01-17T13:05:38.416Z,6.30
2019-01-17T13:08:07.343Z,6.30
2019-01-17T13:10:36.279Z,6.30
2019-01-17T13:13:05.071Z,6.30
2019-01-17T13:15:33.948Z,6.30
2019-01-17T13:18:02.769Z,6.40
2019-01-17T13:20:31.629Z,6.40
2019-01-17T13:23:00.776Z,6.40
2019-01-17T13:25:29.720Z,6.40
2019-01-17T13:27:58.860Z,6.40
2019-01-17T13:30:28.217Z,6.40
2019-01-17T13:32:57.076Z,6.40
2019-01-17T13:35:26.200Z,6.50
2019-01-17T13:37:55.336Z,6.50
2019-01-17T13:40:24.208Z,6.50
2019-01-17T13:42:53.069Z,6.50
2019-01-17T13:45:22.116Z,6.50
2019-01-17T13:47:51.043Z,6.40
2019-01-17T13:50:19.997Z,6.20
2019-01-17T13:52:49.905Z,6.10
2019-01-17T13:55:18.880Z,5.90
2019-01-17T13:57:48.613Z,5.80
2019-01-17T14:00:22.576Z,5.70
2019-01-17T14:02:51.556Z,5.60
2019-01-17T14:05:20.492Z,5.60
2019-01-17T14:07:49.968Z,5.60
2019-01-17T14:10:19.168Z,5.70
2019-01-17T14:12:48.154Z,5.70
2019-01-17T14:15:19.618Z,5.70
2019-01-17T14:17:48.485Z,5.80
2019-01-17T14:20:17.380Z,6.80
2019-01-17T14:22:46.425Z,6.80
2019-01-17T14:25:15.372Z,7.50
2019-01-17T14:27:44.224Z,9.90
2019-01-17T14:30:17.116Z,12.30
2019-01-17T14:32:46.839Z,13.50
2019-01-17T14:35:16.015Z,13.30
2019-01-17T14:37:44.905Z,12.20
2019-01-17T14:40:14.232Z,10.80
2019-01-17T14:42:43.172Z,9.10
2019-01-17T14:45:14.960Z,8.10
2019-01-17T14:47:43.832Z,7.70
2019-01-17T14:50:16.487Z,7.50
2019-01-17T14:52:45.711Z,7.10
2019-01-17T14:55:15.029Z,6.80
2019-01-17T14:57:43.982Z,6.70
2019-01-17T15:00:16.011Z,6.60
2019-01-17T15:02:44.956Z,6.50
2019-01-17T15:05:14.871Z,6.40
2019-01-17T15:07:44.080Z,6.40
2019-01-17T15:10:15.925Z,6.40
2019-01-17T15:12:44.792Z,6.40
2019-01-17T15:15:13.942Z,6.40
2019-01-17T15:17:42.773Z,6.30
2019-01-17T15:20:14.597Z,6.30
2019-01-17T15:22:44.157Z,6.20
2019-01-17T15:25:13.741Z,6.20
2019-01-17T15:27:42.809Z,6.20
2019-01-17T15:30:15.128Z,6.20
2019-01-17T15:32:44.075Z,6.20
2019-01-17T15:35:13.553Z,6.20
2019-01-17T15:37:42.345Z,6.20
2019-01-17T15:40:20.600Z,6.10
2019-01-17T15:42:49.464Z,6.10
2019-01-17T15:45:18.543Z,6.10
2019-01-17T15:47:47.864Z,6.00
2019-01-17T15:50:17.649Z,5.90
2019-01-17T15:52:46.463Z,5.90
2019-01-17T15:55:15.829Z,5.90
2019-01-17T15:57:45.001Z,5.80
2019-01-17T16:00:17.333Z,5.80
2019-01-17T16:02:46.204Z,5.80
2019-01-17T16:05:15.384Z,5.80
2019-01-17T16:07:44.372Z,5.80
2019-01-17T16:10:13.816Z,5.80
2019-01-17T16:12:43.092Z,5.80
2019-01-17T16:15:14.979Z,5.80
2019-01-17T16:17:43.778Z,5.80
2019-01-17T16:20:13.473Z,5.80
2019-01-17T16:22:42.423Z,5.80
2019-01-17T16:25:12.595Z,5.80
2019-01-17T16:27:42.047Z,5.70
2019-01-17T16:30:17.464Z,5.80
2019-01-17T16:32:46.276Z,5.80
2019-01-17T16:35:15.888Z,5.80
2019-01-17T16:37:44.757Z,5.70
2019-01-17T16:40:13.762Z,5.70
2019-01-17T16:42:42.626Z,5.70
2019-01-17T16:45:12.840Z,5.60
2019-01-17T16:47:41.712Z,5.60
2019-01-17T16:50:19.297Z,5.60
2019-01-17T16:52:48.235Z,5.50
2019-01-17T16:55:17.337Z,5.50
2019-01-17T16:57:49.248Z,5.40
2019-01-17T17:00:40.313Z,5.30
2019-01-17T17:03:09.364Z,5.30
2019-01-17T17:05:38.174Z,5.20
2019-01-17T17:08:07.123Z,5.10
2019-01-17T17:10:36.016Z,5.10
2019-01-17T17:13:04.960Z,5.10
2019-01-17T17:15:33.893Z,5.10
2019-01-17T17:18:02.764Z,5.10
2019-01-17T17:20:31.714Z,5.00
2019-01-17T17:23:00.522Z,5.00
2019-01-17T17:25:29.394Z,5.00
2019-01-17T17:27:58.351Z,5.00
2019-01-17T17:30:27.774Z,5.00
2019-01-17T17:32:56.572Z,5.00
2019-01-17T17:35:25.777Z,5.00
2019-01-17T17:37:54.932Z,5.10
2019-01-17T17:40:26.006Z,5.00
2019-01-17T17:42:54.873Z,5.00
2019-01-17T17:45:23.728Z,4.90
2019-01-17T17:47:53.113Z,4.90
2019-01-17T17:50:22.381Z,4.90
2019-01-17T17:52:51.351Z,4.90
2019-01-17T17:55:20.295Z,4.80
2019-01-17T17:57:50.573Z,4.90
2019-01-17T18:00:36.172Z,4.80
2019-01-17T18:03:05.129Z,4.90
2019-01-17T18:05:34.054Z,4.90
2019-01-17T18:08:02.851Z,5.00
2019-01-17T18:10:32.024Z,5.00
2019-01-17T18:13:01.120Z,5.10
2019-01-17T18:15:30.050Z,5.00
2019-01-17T18:17:59.024Z,4.80
2019-01-17T18:20:27.948Z,4.70
2019-01-17T18:22:56.732Z,4.40
2019-01-17T18:25:25.864Z,4.10
2019-01-17T18:27:54.724Z,4.00
2019-01-17T18:30:23.716Z,3.80
2019-01-17T18:32:52.681Z,3.60
2019-01-17T18:35:21.618Z,3.60
2019-01-17T18:37:50.474Z,3.60
2019-01-17T18:40:19.415Z,3.50
2019-01-17T18:42:48.345Z,3.50
2019-01-17T18:45:19.075Z,3.50
2019-01-17T18:47:48.000Z,3.50
2019-01-17T18:50:21.875Z,3.50
2019-01-17T18:52:50.808Z,3.40
2019-01-17T18:55:19.607Z,3.30
2019-01-17T18:57:48.474Z,3.30
2019-01-17T19:00:21.665Z,3.10
2019-01-17T19:02:50.965Z,3.10
2019-01-17T19:05:20.176Z,3.00
2019-01-17T19:07:49.046Z,2.90
2019-01-17T19:10:18.528Z,2.90
2019-01-17T19:12:47.463Z,2.80
2019-01-17T19:15:18.828Z,2.70
2019-01-17T19:17:47.769Z,2.60
2019-01-17T19:20:17.164Z,2.40
2019-01-17T19:22:46.032Z,2.30
2019-01-17T19:25:14.984Z,2.30
2019-01-17T19:27:43.922Z,2.30
2019-01-17T19:30:18.607Z,2.30
2019-01-17T19:32:47.581Z,2.30
2019-01-17T19:35:16.831Z,2.30
2019-01-17T19:37:45.690Z,2.30
2019-01-17T19:40:16.696Z,2.40
2019-01-17T19:42:45.643Z,2.40
2019-01-17T19:45:15.476Z,2.40
2019-01-17T19:47:44.503Z,2.40
2019-01-17T19:50:25.684Z,2.40
2019-01-17T19:52:54.635Z,2.50
2019-01-17T19:55:23.580Z,2.50
2019-01-17T19:57:52.712Z,2.50
2019-01-17T20:00:21.768Z,2.50
2019-01-17T20:02:50.716Z,2.50
2019-01-17T20:05:20.332Z,2.40
2019-01-17T20:07:49.401Z,2.50
2019-01-17T20:10:24.260Z,2.50
2019-01-17T20:12:53.351Z,2.50
2019-01-17T20:15:22.288Z,2.50
2019-01-17T20:17:51.401Z,2.50
2019-01-17T20:20:20.327Z,2.40
2019-01-17T20:22:49.268Z,2.50
2019-01-17T20:25:18.536Z,2.40
2019-01-17T20:27:47.537Z,2.40
2019-01-17T20:30:36.100Z,2.30
2019-01-17T20:33:06.833Z,2.30
2019-01-17T20:35:35.952Z,2.30
2019-01-17T20:38:05.835Z,2.20
2019-01-17T20:40:34.722Z,2.10
2019-01-17T20:43:03.641Z,2.10
2019-01-17T20:45:32.575Z,2.10
2019-01-17T20:48:01.519Z,2.10
2019-01-17T20:50:32.221Z,2.10
2019-01-17T20:53:01.109Z,2.10
2019-01-17T20:55:29.959Z,2.10
2019-01-17T20:57:58.820Z,2.10
2019-01-17T21:00:43.772Z,2.10
2019-01-17T21:03:14.420Z,2.10
2019-01-17T21:05:43.218Z,2.10
2019-01-17T21:08:12.075Z,2.20
2019-01-17T21:10:40.956Z,2.20
2019-01-17T21:13:09.830Z,2.20
2019-01-17T21:15:38.762Z,2.30
2019-01-17T21:18:08.247Z,2.40
2019-01-17T21:20:37.112Z,2.40
2019-01-17T21:23:06.054Z,2.40
2019-01-17T21:25:34.926Z,2.40
2019-01-17T21:28:03.785Z,2.50
2019-01-17T21:30:32.667Z,2.50
2019-01-17T21:33:06.786Z,2.50
2019-01-17T21:35:32.089Z,2.60
2019-01-17T21:38:01.015Z,2.60
2019-01-17T21:40:49.116Z,2.60
2019-01-17T21:43:17.892Z,2.60
2019-01-17T21:45:47.620Z,2.60
2019-01-17T21:48:16.390Z,2.50
2019-01-17T21:50:45.189Z,2.50
2019-01-17T21:53:14.036Z,2.40
2019-01-17T21:55:43.632Z,2.40
2019-01-17T21:58:12.414Z,2.30
2019-01-17T22:00:41.213Z,2.30
2019-01-17T22:03:10.241Z,2.20
2019-01-17T22:05:39.088Z,2.20
2019-01-17T22:08:08.292Z,2.10
2019-01-17T22:10:37.147Z,2.10
2019-01-17T22:13:06.004Z,2.00
2019-01-17T22:15:34.871Z,2.00
2019-01-17T22:18:03.803Z,1.90
2019-01-17T22:20:32.904Z,1.90
2019-01-17T22:23:02.003Z,1.90
2019-01-17T22:25:30.861Z,1.90
2019-01-17T22:28:00.467Z,1.80
2019-01-17T22:30:29.369Z,1.80
2019-01-17T22:32:58.213Z,1.80
2019-01-17T22:35:27.148Z,1.80
2019-01-17T22:37:56.027Z,1.80
2019-01-17T22:40:24.908Z,1.90
2019-01-17T22:42:54.216Z,1.90
2019-01-17T22:45:28.212Z,1.90
2019-01-17T22:47:57.068Z,2.00
2019-01-17T22:50:25.919Z,2.00
2019-01-17T22:52:55.208Z,2.00
2019-01-17T22:55:24.495Z,2.00
2019-01-17T22:57:53.851Z,2.00
2019-01-17T23:00:45.385Z,2.00
2019-01-17T23:03:14.258Z,2.00
2019-01-17T23:05:43.059Z,1.90
2019-01-17T23:08:12.238Z,1.90
2019-01-17T23:10:41.187Z,1.90
2019-01-17T23:13:10.040Z,1.90
2019-01-17T23:15:39.060Z,1.80
2019-01-17T23:18:08.108Z,1.80
2019-01-17T23:20:37.604Z,1.80
2019-01-17T23:23:06.483Z,1.70
2019-01-17T23:25:35.355Z,1.70
2019-01-17T23:28:04.301Z,1.70
2019-01-17T23:30:33.366Z,1.60
2019-01-17T23:33:02.228Z,1.60
2019-01-17T23:35:31.100Z,1.60
2019-01-17T23:37:59.904Z,1.60
2019-01-17T23:40:28.697Z,1.50
2019-01-17T23:42:57.576Z,1.50
2019-01-17T23:45:26.431Z,1.50
2019-01-17T23:47:55.349Z,1.50
2019-01-17T23:50:24.231Z,1.50
2019-01-17T23:52:53.458Z,1.40
2019-01-17T23:55:22.604Z,1.40
2019-01-17T23:57:51.445Z,1.40
